createdAt,value
2023-04-15T00:00:59.817Z,4.05
2023-04-15T00:03:26.876Z,4.05
2023-04-15T00:05:53.677Z,4.20
2023-04-15T00:08:20.645Z,3.65
2023-04-15T00:10:47.953Z,4.60
2023-04-15T00:13:15.554Z,3.60
2023-04-15T00:15:42.789Z,4.18
2023-04-15T00:18:09.837Z,4.07
2023-04-15T00:20:37.256Z,4.05
2023-04-15T00:23:04.410Z,3.85
2023-04-15T00:25:31.570Z,3.95
2023-04-15T00:27:58.324Z,4.03
2023-04-15T00:30:25.772Z,3.78
2023-04-15T00:32:52.828Z,4.60
2023-04-15T00:35:19.452Z,4.07
2023-04-15T00:37:46.525Z,3.53
2023-04-15T00:40:14.033Z,3.80
2023-04-15T00:42:41.074Z,3.30
2023-04-15T00:45:08.941Z,3.90
2023-04-15T00:47:37.426Z,4.10
2023-04-15T00:50:05.129Z,4.10
2023-04-15T00:52:32.621Z,4.40
2023-04-15T00:55:00.050Z,4.13
2023-04-15T00:57:28.661Z,3.90
2023-04-15T00:59:56.129Z,3.75
2023-04-15T01:02:24.101Z,3.65
2023-04-15T01:04:51.509Z,4.45
2023-04-15T01:07:18.105Z,4.32
2023-04-15T01:09:45.752Z,4.40
2023-04-15T01:12:14.169Z,4.43
2023-04-15T01:14:41.209Z,4.07
2023-04-15T01:17:07.909Z,4.32
2023-04-15T01:19:36.804Z,4.53
2023-04-15T01:22:04.206Z,4.32
2023-04-15T01:24:37.038Z,4.50
2023-04-15T01:27:05.408Z,5.18
2023-04-15T01:29:33.199Z,4.72
2023-04-15T01:32:00.328Z,4.28
2023-04-15T01:34:27.164Z,3.80
2023-04-15T01:36:53.811Z,4.15
2023-04-15T01:39:20.424Z,3.65
2023-04-15T01:41:47.354Z,3.90
2023-04-15T01:44:14.080Z,3.90
2023-04-15T01:46:40.768Z,3.95
2023-04-15T01:49:07.699Z,5.10
2023-04-15T01:51:34.368Z,3.83
2023-04-15T01:54:00.941Z,3.65
2023-04-15T01:56:27.557Z,4.55
2023-04-15T01:58:54.115Z,3.85
2023-04-15T02:01:20.956Z,4.20
2023-04-15T02:03:48.384Z,3.92
2023-04-15T02:06:15.323Z,4.03
2023-04-15T02:08:42.164Z,4.75
2023-04-15T02:11:09.406Z,4.15
2023-04-15T02:13:36.347Z,4.15
2023-04-15T02:16:03.814Z,3.92
2023-04-15T02:18:30.629Z,3.97
2023-04-15T02:20:58.777Z,3.70
2023-04-15T02:23:25.877Z,3.88
2023-04-15T02:25:53.897Z,4.68
2023-04-15T02:28:21.591Z,4.05
2023-04-15T02:30:53.105Z,5.00
2023-04-15T02:33:21.845Z,5.25
2023-04-15T02:35:48.514Z,5.70
2023-04-15T02:38:16.896Z,4.57
2023-04-15T02:40:43.521Z,6.05
2023-04-15T02:43:10.257Z,4.90
2023-04-15T02:45:36.987Z,4.63
2023-04-15T02:48:06.334Z,4.28
2023-04-15T02:50:33.488Z,4.53
2023-04-15T02:53:01.711Z,4.38
2023-04-15T02:55:29.015Z,5.03
2023-04-15T02:57:55.967Z,5.10
2023-04-15T03:00:25.355Z,5.32
2023-04-15T03:02:56.599Z,4.70
2023-04-15T03:05:26.213Z,4.80
2023-04-15T03:07:53.737Z,5.03
2023-04-15T03:10:20.906Z,5.05
2023-04-15T03:12:47.834Z,5.15
2023-04-15T03:15:14.784Z,4.75
2023-04-15T03:17:41.476Z,5.22
2023-04-15T03:20:08.861Z,5.28
2023-04-15T03:22:35.579Z,4.75
2023-04-15T03:25:02.212Z,4.70
2023-04-15T03:27:28.858Z,4.78
2023-04-15T03:29:57.228Z,5.38
2023-04-15T03:32:24.052Z,4.80
2023-04-15T03:34:50.786Z,5.43
2023-04-15T03:37:17.437Z,5.57
2023-04-15T03:39:44.136Z,5.00
2023-04-15T03:42:11.122Z,5.10
2023-04-15T03:44:38.461Z,5.03
2023-04-15T03:47:05.110Z,5.45
2023-04-15T03:49:31.798Z,5.47
2023-04-15T03:51:58.469Z,5.13
2023-04-15T03:54:25.067Z,5.38
2023-04-15T03:56:51.740Z,6.10
2023-04-15T03:59:18.286Z,6.53
2023-04-15T04:01:44.957Z,6.93
2023-04-15T04:04:11.656Z,6.70
2023-04-15T04:06:38.346Z,6.40
2023-04-15T04:09:04.994Z,7.53
2023-04-15T04:11:33.084Z,7.45
2023-04-15T04:13:59.684Z,7.68
2023-04-15T04:16:26.629Z,6.80
2023-04-15T04:18:53.394Z,7.47
2023-04-15T04:21:21.080Z,6.88
2023-04-15T04:23:47.714Z,7.47
2023-04-15T04:26:14.415Z,7.43
2023-04-15T04:28:41.128Z,7.57
2023-04-15T04:31:08.149Z,7.32
2023-04-15T04:33:34.800Z,8.07
2023-04-15T04:36:01.546Z,7.30
2023-04-15T04:38:28.246Z,7.93
2023-04-15T04:40:54.841Z,7.93
2023-04-15T04:43:21.518Z,7.63
2023-04-15T04:45:48.237Z,7.72
2023-04-15T04:48:14.852Z,8.05
2023-04-15T04:50:42.031Z,7.60
2023-04-15T04:53:09.028Z,8.40
2023-04-15T04:55:37.122Z,8.45
2023-04-15T04:58:03.732Z,7.97
2023-04-15T05:00:30.439Z,8.93
2023-04-15T05:02:57.208Z,7.70
2023-04-15T05:05:23.885Z,9.32
2023-04-15T05:07:50.709Z,7.75
2023-04-15T05:10:18.324Z,8.23
2023-04-15T05:12:45.159Z,9.45
2023-04-15T05:15:12.312Z,8.80
2023-04-15T05:17:39.071Z,7.82
2023-04-15T05:20:06.243Z,8.65
2023-04-15T05:22:32.936Z,7.82
2023-04-15T05:24:59.678Z,8.35
2023-04-15T05:27:26.694Z,8.02
2023-04-15T05:29:53.325Z,8.40
2023-04-15T05:32:19.980Z,8.77
2023-04-15T05:34:47.149Z,7.50
2023-04-15T05:37:13.883Z,7.80
2023-04-15T05:39:40.527Z,7.82
2023-04-15T05:42:07.594Z,8.48
2023-04-15T05:44:34.217Z,7.38
2023-04-15T05:47:01.074Z,7.47
2023-04-15T05:49:27.616Z,7.15
2023-04-15T05:51:54.317Z,7.63
2023-04-15T05:54:23.223Z,7.78
2023-04-15T05:56:49.794Z,7.03
2023-04-15T05:59:16.831Z,7.78
2023-04-15T06:01:43.929Z,7.30
2023-04-15T06:04:11.726Z,7.00
2023-04-15T06:06:38.726Z,6.72
2023-04-15T06:09:05.388Z,6.47
2023-04-15T06:11:32.218Z,6.93
2023-04-15T06:13:58.943Z,7.38
2023-04-15T06:16:25.700Z,7.30
2023-04-15T06:18:52.289Z,7.60
2023-04-15T06:21:19.371Z,7.10
2023-04-15T06:23:46.358Z,7.13
2023-04-15T06:26:13.004Z,7.40
2023-04-15T06:28:39.683Z,7.03
2023-04-15T06:31:06.476Z,7.65
2023-04-15T06:33:33.068Z,6.80
2023-04-15T06:35:59.670Z,7.53
2023-04-15T06:38:26.575Z,7.20
2023-04-15T06:40:53.348Z,7.35
2023-04-15T06:43:21.002Z,7.45
2023-04-15T06:45:47.791Z,7.85
2023-04-15T06:48:14.647Z,6.90
2023-04-15T06:50:41.553Z,8.10
2023-04-15T06:53:08.202Z,7.53
2023-04-15T06:55:34.852Z,7.63
2023-04-15T06:58:04.130Z,7.78
2023-04-15T07:00:30.773Z,7.53
2023-04-15T07:02:59.319Z,8.40
2023-04-15T07:05:26.534Z,7.25
2023-04-15T07:07:53.364Z,7.25
2023-04-15T07:10:20.517Z,7.80
2023-04-15T07:12:51.271Z,7.15
2023-04-15T07:15:18.258Z,7.97
2023-04-15T07:17:44.904Z,7.63
2023-04-15T07:20:12.911Z,7.65
2023-04-15T07:22:40.258Z,7.80
2023-04-15T07:25:07.777Z,7.63
2023-04-15T07:27:34.376Z,7.80
2023-04-15T07:30:01.088Z,8.18
2023-04-15T07:32:27.822Z,7.60
2023-04-15T07:34:54.622Z,7.78
2023-04-15T07:37:21.203Z,7.85
2023-04-15T07:39:49.896Z,6.95
2023-04-15T07:42:16.852Z,7.03
2023-04-15T07:44:43.534Z,6.55
2023-04-15T07:47:10.790Z,6.75
2023-04-15T07:49:37.487Z,6.78
2023-04-15T07:52:04.361Z,6.75
2023-04-15T07:54:30.948Z,6.43
2023-04-15T07:56:57.648Z,6.30
2023-04-15T07:59:24.409Z,6.43
2023-04-15T08:01:51.559Z,6.22
2023-04-15T08:04:18.341Z,5.55
2023-04-15T08:06:45.011Z,5.50
2023-04-15T08:09:11.980Z,5.50
2023-04-15T08:11:38.583Z,5.97
2023-04-15T08:14:05.977Z,5.60
2023-04-15T08:16:35.251Z,5.90
2023-04-15T08:19:02.414Z,5.05
2023-04-15T08:21:31.062Z,5.72
2023-04-15T08:24:01.740Z,4.38
2023-04-15T08:26:28.370Z,4.88
2023-04-15T08:28:55.392Z,5.10
2023-04-15T08:31:22.361Z,5.05
2023-04-15T08:33:59.534Z,4.95
2023-04-15T08:36:27.195Z,4.85
2023-04-15T08:38:56.916Z,4.90
2023-04-15T08:41:35.823Z,5.45
2023-04-15T08:44:13.828Z,5.13
2023-04-15T08:46:42.618Z,5.63
2023-04-15T08:49:15.548Z,5.25
2023-04-15T08:51:43.020Z,5.63
2023-04-15T08:54:10.231Z,6.07
2023-04-15T08:56:37.517Z,6.20
2023-04-15T08:59:11.505Z,6.22
2023-04-15T09:04:08.139Z,5.85
2023-04-15T09:06:38.606Z,6.03
2023-04-15T09:09:06.361Z,6.47
2023-04-15T09:11:33.196Z,6.03
2023-04-15T09:14:00.203Z,5.00
2023-04-15T09:16:28.539Z,5.43
2023-04-15T09:18:55.203Z,5.38
2023-04-15T09:21:24.688Z,5.53
2023-04-15T09:23:59.865Z,5.43
2023-04-15T09:26:44.928Z,5.40
2023-04-15T09:29:15.484Z,5.55
2023-04-15T09:31:42.990Z,5.65
2023-04-15T09:34:10.471Z,5.15
2023-04-15T09:36:56.946Z,4.72
2023-04-15T09:39:24.599Z,4.38
2023-04-15T09:42:07.862Z,4.18
2023-04-15T09:44:38.258Z,4.63
2023-04-15T09:47:04.834Z,4.72
2023-04-15T09:49:34.793Z,4.78
2023-04-15T09:52:06.303Z,3.90
2023-04-15T09:54:38.537Z,3.72
2023-04-15T09:57:07.386Z,4.00
2023-04-15T09:59:34.241Z,2.97
2023-04-15T10:02:04.591Z,3.35
2023-04-15T10:04:35.259Z,4.05
2023-04-15T10:07:03.985Z,3.25
2023-04-15T10:09:31.710Z,2.90
2023-04-15T10:11:58.393Z,3.92
2023-04-15T10:14:30.871Z,4.50
2023-04-15T10:17:14.160Z,3.60
2023-04-15T10:19:41.891Z,3.38
2023-04-15T10:22:08.722Z,3.60
2023-04-15T10:24:35.519Z,2.90
2023-04-15T10:27:04.736Z,3.08
2023-04-15T10:29:42.409Z,3.50
2023-04-15T10:32:10.390Z,3.13
2023-04-15T10:34:37.838Z,2.60
2023-04-15T10:37:07.183Z,3.25
2023-04-15T10:39:37.456Z,2.28
2023-04-15T10:42:15.603Z,1.73
2023-04-15T10:44:44.981Z,3.00
2023-04-15T10:47:22.213Z,2.30
2023-04-15T10:50:02.567Z,2.20
2023-04-15T10:52:33.114Z,2.60
2023-04-15T10:55:18.910Z,2.63
2023-04-15T10:57:45.633Z,2.50
2023-04-15T11:00:13.668Z,2.45
2023-04-15T11:02:54.294Z,1.60
2023-04-15T11:05:44.188Z,1.77
2023-04-15T11:08:11.860Z,1.85
2023-04-15T11:10:38.402Z,1.33
2023-04-15T11:13:06.515Z,1.50
2023-04-15T11:15:38.968Z,1.10
2023-04-15T11:18:19.589Z,1.48
2023-04-15T11:20:52.014Z,1.80
2023-04-15T11:23:20.091Z,1.70
2023-04-15T11:25:49.035Z,1.77
2023-04-15T11:28:16.127Z,1.92
2023-04-15T11:30:42.938Z,1.80
2023-04-15T11:33:12.480Z,2.00
2023-04-15T11:35:41.712Z,2.05
2023-04-15T11:38:20.673Z,1.83
2023-04-15T11:40:47.465Z,1.95
2023-04-15T11:43:22.786Z,2.47
2023-04-15T11:45:55.972Z,2.50
2023-04-15T11:48:30.731Z,2.20
2023-04-15T11:51:01.807Z,1.95
2023-04-15T11:53:50.147Z,1.42
2023-04-15T11:56:21.946Z,1.75
2023-04-15T11:58:52.805Z,1.48
2023-04-15T12:01:19.548Z,2.25
2023-04-15T12:03:47.678Z,1.38
2023-04-15T12:06:18.085Z,1.23
2023-04-15T12:08:57.581Z,1.08
2023-04-15T12:11:27.400Z,1.05
2023-04-15T12:14:22.826Z,1.17
2023-04-15T12:17:11.261Z,1.52
2023-04-15T12:19:43.401Z,1.80
2023-04-15T12:22:12.180Z,1.95
2023-04-15T12:24:39.645Z,2.05
2023-04-15T12:27:14.169Z,1.90
2023-04-15T12:29:43.220Z,1.52
2023-04-15T12:32:15.613Z,1.75
2023-04-15T12:34:51.145Z,1.40
2023-04-15T12:37:18.293Z,1.65
2023-04-15T12:39:48.074Z,1.70
2023-04-15T12:42:16.047Z,1.90
2023-04-15T12:44:43.160Z,1.70
2023-04-15T12:47:11.454Z,1.40
2023-04-15T12:49:39.497Z,1.77
2023-04-15T12:52:06.575Z,1.70
2023-04-15T12:54:33.586Z,1.77
2023-04-15T12:57:01.129Z,1.48
2023-04-15T12:59:28.589Z,1.60
2023-04-15T13:01:55.629Z,1.58
2023-04-15T13:04:22.942Z,2.00
2023-04-15T13:06:49.861Z,3.03
2023-04-15T13:09:16.764Z,2.28
2023-04-15T13:11:43.671Z,2.33
2023-04-15T13:14:13.201Z,2.40
2023-04-15T13:16:40.952Z,2.15
2023-04-15T13:19:08.046Z,1.98
2023-04-15T13:21:36.219Z,2.10
2023-04-15T13:24:04.259Z,1.67
2023-04-15T13:26:31.911Z,1.90
2023-04-15T13:28:58.899Z,1.88
2023-04-15T13:31:25.710Z,2.00
2023-04-15T13:33:52.346Z,2.00
2023-04-15T13:36:22.110Z,2.00
2023-04-15T13:38:51.176Z,2.08
2023-04-15T13:41:18.454Z,2.00
2023-04-15T13:43:45.082Z,2.20
2023-04-15T13:46:11.804Z,2.05
2023-04-15T13:48:41.431Z,2.63
2023-04-15T13:51:08.007Z,2.30
2023-04-15T13:53:38.726Z,2.10
2023-04-15T13:56:07.510Z,2.28
2023-04-15T13:58:37.609Z,2.08
2023-04-15T14:01:06.754Z,1.95
2023-04-15T14:03:35.453Z,1.90
2023-04-15T14:06:02.292Z,1.65
2023-04-15T14:08:30.180Z,1.83
2023-04-15T14:10:57.844Z,1.70
2023-04-15T14:13:24.719Z,1.55
2023-04-15T14:15:51.453Z,1.50
2023-04-15T14:18:18.209Z,1.40
2023-04-15T14:20:45.331Z,1.30
2023-04-15T14:23:11.946Z,1.38
2023-04-15T14:25:39.741Z,1.25
2023-04-15T14:28:06.392Z,1.10
2023-04-15T14:30:33.166Z,1.25
2023-04-15T14:33:00.017Z,1.45
2023-04-15T14:35:27.383Z,1.33
2023-04-15T14:37:54.583Z,1.83
2023-04-15T14:40:21.345Z,1.42
2023-04-15T14:42:48.031Z,0.90
2023-04-15T14:45:14.806Z,1.20
2023-04-15T14:47:41.549Z,1.05
2023-04-15T14:50:08.640Z,1.40
2023-04-15T14:52:38.883Z,1.40
2023-04-15T14:55:13.187Z,1.63
2023-04-15T14:57:41.861Z,1.10
2023-04-15T15:00:10.592Z,0.95
2023-04-15T15:02:40.280Z,1.20
2023-04-15T15:05:08.737Z,1.10
2023-04-15T15:07:39.468Z,0.95
2023-04-15T15:10:07.129Z,1.13
2023-04-15T15:12:34.456Z,1.40
2023-04-15T15:15:03.058Z,0.73
2023-04-15T15:17:32.006Z,1.35
2023-04-15T15:19:58.751Z,0.70
2023-04-15T15:22:26.259Z,1.25
2023-04-15T15:24:53.609Z,1.45
2023-04-15T15:27:20.443Z,1.70
2023-04-15T15:29:47.199Z,1.48
2023-04-15T15:32:13.821Z,1.17
2023-04-15T15:34:40.445Z,1.30
2023-04-15T15:37:07.051Z,1.30
2023-04-15T15:39:35.333Z,1.40
2023-04-15T15:42:01.947Z,1.05
2023-04-15T15:44:28.529Z,2.10
2023-04-15T15:46:55.239Z,2.00
2023-04-15T15:49:21.999Z,1.38
2023-04-15T15:51:49.937Z,1.90
2023-04-15T15:54:16.535Z,1.80
2023-04-15T15:56:43.242Z,1.65
2023-04-15T15:59:09.853Z,1.92
2023-04-15T16:01:36.565Z,1.52
2023-04-15T16:04:03.437Z,1.70
2023-04-15T16:06:32.776Z,2.10
2023-04-15T16:09:01.261Z,1.40
2023-04-15T16:11:28.861Z,1.65
2023-04-15T16:13:55.456Z,1.88
2023-04-15T16:16:22.111Z,1.38
2023-04-15T16:18:48.693Z,1.30
2023-04-15T16:21:15.796Z,1.10
2023-04-15T16:23:42.424Z,1.63
2023-04-15T16:26:09.071Z,1.30
2023-04-15T16:28:35.833Z,1.40
2023-04-15T16:31:02.678Z,1.63
2023-04-15T16:33:29.344Z,1.40
2023-04-15T16:35:56.145Z,1.27
2023-04-15T16:38:22.841Z,1.30
2023-04-15T16:40:49.589Z,1.40
2023-04-15T16:43:16.238Z,1.60
2023-04-15T16:45:44.573Z,1.73
2023-04-15T16:48:11.340Z,1.30
2023-04-15T16:50:38.115Z,1.30
2023-04-15T16:53:04.790Z,1.10
2023-04-15T16:55:31.430Z,1.23
2023-04-15T16:58:04.244Z,1.17
2023-04-15T17:00:32.915Z,1.20
2023-04-15T17:03:00.738Z,1.10
2023-04-15T17:05:27.854Z,1.10
2023-04-15T17:07:54.832Z,1.25
2023-04-15T17:10:21.918Z,1.75
2023-04-15T17:12:49.793Z,1.23
2023-04-15T17:15:16.633Z,1.30
2023-04-15T17:17:43.315Z,1.50
2023-04-15T17:20:10.687Z,1.20
2023-04-15T17:22:37.424Z,1.40
2023-04-15T17:25:04.705Z,1.40
2023-04-15T17:27:31.325Z,1.20
2023-04-15T17:29:58.228Z,1.83
2023-04-15T17:32:26.462Z,1.20
2023-04-15T17:34:53.100Z,1.15
2023-04-15T17:37:25.579Z,1.50
2023-04-15T17:39:55.589Z,1.52
2023-04-15T17:42:23.146Z,1.80
2023-04-15T17:44:49.966Z,1.55
2023-04-15T17:47:17.186Z,1.45
2023-04-15T17:49:44.393Z,1.10
2023-04-15T17:52:11.516Z,1.33
2023-04-15T17:54:47.547Z,1.27
2023-04-15T17:57:14.347Z,1.35
2023-04-15T17:59:44.408Z,1.27
2023-04-15T18:02:11.896Z,1.95
2023-04-15T18:04:39.602Z,1.52
2023-04-15T18:07:07.070Z,1.85
2023-04-15T18:09:36.357Z,1.50
2023-04-15T18:12:04.848Z,2.03
2023-04-15T18:14:34.568Z,1.90
2023-04-15T18:17:04.953Z,1.55
2023-04-15T18:19:32.137Z,2.38
2023-04-15T18:22:13.897Z,2.20
2023-04-15T18:24:41.156Z,1.83
2023-04-15T18:27:07.782Z,1.77
2023-04-15T18:29:35.336Z,1.65
2023-04-15T18:32:06.295Z,1.90
2023-04-15T18:34:33.259Z,3.00
2023-04-15T18:37:03.471Z,2.80
2023-04-15T18:39:30.991Z,2.65
2023-04-15T18:42:02.090Z,2.00
2023-04-15T18:44:35.595Z,1.67
2023-04-15T18:49:28.872Z,2.22
2023-04-15T18:51:58.321Z,2.25
2023-04-15T18:54:32.618Z,2.58
2023-04-15T18:57:04.447Z,2.95
2023-04-15T18:59:33.799Z,2.22
2023-04-15T19:02:01.557Z,2.05
2023-04-15T19:04:31.409Z,1.75
2023-04-15T19:06:59.412Z,1.90
2023-04-15T19:09:26.422Z,1.77
2023-04-15T19:11:59.843Z,2.13
2023-04-15T19:14:27.895Z,1.90
2023-04-15T19:16:58.808Z,1.90
2023-04-15T19:19:26.890Z,1.55
2023-04-15T19:21:55.310Z,2.03
2023-04-15T19:24:22.747Z,1.98
2023-04-15T19:26:54.377Z,2.35
2023-04-15T19:29:21.993Z,1.80
2023-04-15T19:31:51.165Z,1.92
2023-04-15T19:34:20.524Z,1.90
2023-04-15T19:36:47.170Z,1.75
2023-04-15T19:39:14.625Z,1.95
2023-04-15T19:41:41.203Z,2.28
2023-04-15T19:44:07.871Z,2.53
2023-04-15T19:46:34.499Z,2.08
2023-04-15T19:49:01.469Z,2.10
2023-04-15T19:51:28.623Z,2.67
2023-04-15T19:53:56.815Z,3.03
2023-04-15T19:56:24.097Z,2.75
2023-04-15T19:58:52.989Z,2.03
2023-04-15T20:01:20.612Z,2.10
2023-04-15T20:03:47.990Z,2.38
2023-04-15T20:06:15.485Z,1.90
2023-04-15T20:08:42.241Z,1.73
2023-04-15T20:11:09.450Z,2.35
2023-04-15T20:13:36.457Z,2.83
2023-04-15T20:16:03.613Z,2.10
2023-04-15T20:18:30.807Z,3.60
2023-04-15T20:20:57.392Z,2.30
2023-04-15T20:23:23.985Z,2.90
2023-04-15T20:25:50.842Z,2.13
2023-04-15T20:28:19.251Z,2.42
2023-04-15T20:30:47.233Z,2.70
2023-04-15T20:33:14.385Z,2.90
2023-04-15T20:35:41.167Z,2.50
2023-04-15T20:38:07.772Z,2.92
2023-04-15T20:40:34.391Z,3.17
2023-04-15T20:43:01.037Z,3.10
2023-04-15T20:45:27.756Z,2.03
2023-04-15T20:47:56.047Z,2.25
2023-04-15T20:50:22.708Z,2.28
2023-04-15T20:52:49.289Z,2.58
2023-04-15T20:55:15.875Z,2.50
2023-04-15T20:57:42.560Z,2.42
2023-04-15T21:00:10.944Z,2.55
2023-04-15T21:02:38.331Z,2.90
2023-04-15T21:05:05.473Z,2.33
2023-04-15T21:07:32.034Z,2.42
2023-04-15T21:09:58.616Z,2.60
2023-04-15T21:12:25.210Z,2.50
2023-04-15T21:14:51.806Z,2.70
2023-04-15T21:17:18.509Z,2.88
2023-04-15T21:19:45.152Z,2.92
2023-04-15T21:22:11.745Z,2.40
2023-04-15T21:24:38.405Z,2.65
2023-04-15T21:27:05.027Z,2.45
2023-04-15T21:29:31.647Z,2.90
2023-04-15T21:31:58.315Z,2.28
2023-04-15T21:34:25.015Z,2.45
2023-04-15T21:36:51.606Z,2.72
2023-04-15T21:39:21.558Z,3.05
2023-04-15T21:41:48.340Z,3.33
2023-04-15T21:44:15.176Z,3.13
2023-04-15T21:46:46.008Z,2.55
2023-04-15T21:49:13.155Z,2.63
2023-04-15T21:51:39.798Z,2.33
2023-04-15T21:54:06.393Z,2.75
2023-04-15T21:56:33.297Z,2.63
2023-04-15T21:58:59.850Z,2.83
2023-04-15T22:01:26.933Z,3.95
2023-04-15T22:03:53.878Z,3.03
2023-04-15T22:06:21.152Z,2.67
2023-04-15T22:08:57.103Z,2.45
2023-04-15T22:11:28.424Z,2.50
2023-04-15T22:13:57.210Z,2.72
2023-04-15T22:16:25.879Z,2.25
2023-04-15T22:18:52.694Z,2.80
2023-04-15T22:21:19.453Z,2.50
2023-04-15T22:23:47.598Z,2.13
2023-04-15T22:26:14.261Z,1.92
2023-04-15T22:28:41.865Z,2.83
2023-04-15T22:31:08.570Z,2.50
2023-04-15T22:33:35.273Z,2.10
2023-04-15T22:36:01.934Z,2.33
2023-04-15T22:38:28.587Z,2.00
2023-04-15T22:40:55.225Z,2.13
2023-04-15T22:43:22.341Z,2.65
2023-04-15T22:45:50.759Z,2.00
2023-04-15T22:48:18.204Z,2.28
2023-04-15T22:50:53.134Z,2.53
2023-04-15T22:53:22.382Z,2.50
2023-04-15T22:55:49.713Z,3.08
2023-04-15T22:58:17.246Z,2.05
2023-04-15T23:00:44.317Z,2.58
2023-04-15T23:03:11.304Z,3.35
2023-04-15T23:05:40.105Z,2.53
2023-04-15T23:08:07.534Z,2.80
2023-04-15T23:10:44.698Z,2.60
2023-04-15T23:13:11.366Z,2.95
2023-04-15T23:15:37.953Z,2.72
2023-04-15T23:18:04.752Z,2.92
2023-04-15T23:20:31.404Z,2.60
2023-04-15T23:22:58.019Z,2.22
2023-04-15T23:25:24.693Z,2.55
2023-04-15T23:27:51.278Z,2.10
2023-04-15T23:30:18.017Z,2.35
2023-04-15T23:32:44.681Z,2.17
2023-04-15T23:35:11.678Z,2.28
2023-04-15T23:37:38.228Z,2.70
2023-04-15T23:40:05.478Z,2.60
2023-04-15T23:42:35.302Z,2.08
2023-04-15T23:45:01.911Z,2.50
2023-04-15T23:47:28.582Z,2.58
2023-04-15T23:49:55.457Z,2.05
2023-04-15T23:52:22.186Z,2.05
2023-04-15T23:54:48.805Z,1.95
2023-04-15T23:57:15.472Z,2.25
2023-04-15T23:59:42.191Z,2.20
